EHGR/GLZ METAR and TAF weather

Enter ICAO airport designator
Station Type Date Time Source
EHGR METAR 2018/12/12 16:55 UTC NOAA

EHGR 121655Z AUTO 07005KT 9999 OVC035 03/00 Q1024 BLU


Station Type Date Time Source
EHGR Decoded METAR 2018/12/12 16:55 UTC NOAA

Gilze-Rijen, Netherlands (EHGR) 51-34N 004-56E 24M
Dec 12, 2018 - 11:55 AM EST / 2018.12.12 1655 UTC
Wind: from the ENE (070 degrees) at 6 MPH (5 KT):0
Visibility: greater than 7 mile(s):0
Sky conditions: overcast
Temperature: 37 F (3 C)
Dew Point: 32 F (0 C)
Relative Humidity: 80%
Pressure (altimeter): 30.24 in. Hg (1024 hPa)
ob: EHGR 121655Z AUTO 07005KT 9999 OVC035 03/00 Q1024 BLU
cycle: 17

Station Type Date Time Source
EHGR TAF 2018/12/12 14:57 UTC NOAA

TAF TAF EHGR 121303Z 1214/1302 08007KT 9999 SCT020


Example: see airport list